Time;durP1;ratioP1;P1;durP2;ratioP2;P2;SDS_P1;SDS_P2;PMS_P1;PMS_P2;Temp;Humidity;BMP_temperature;BMP_pressure;BME280_temperature;BME280_humidity;BME280_pressure;Samples;Min_cycle;Max_cycle;Signal;HPM_P1;HPM_P2
2022/10/22 00:00:37;;;;;;;8.05;5.15;;;;;;;13.53;96.02;100767.16;5047838;28;20116;-54
2022/10/22 00:03:02;;;;;;;11.80;5.32;;;;;;;13.48;95.82;100763.16;5052458;28;20028;-54
2022/10/22 00:05:27;;;;;;;8.48;5.13;;;;;;;13.47;95.85;100764.97;5035281;28;20490;-54
2022/10/22 00:07:53;;;;;;;9.23;4.45;;;;;;;13.30;94.58;100770.75;5035697;28;20464;-54
2022/10/22 00:10:19;;;;;;;6.88;4.90;;;;;;;13.33;96.22;100765.16;5034043;28;20049;-54
2022/10/22 00:12:44;;;;;;;7.40;4.55;;;;;;;13.36;95.96;100757.75;5040334;28;20111;-54
2022/10/22 00:15:12;;;;;;;10.32;4.95;;;;;;;13.35;95.65;100763.22;5054092;28;20033;-54
2022/10/22 00:17:38;;;;;;;8.07;4.75;;;;;;;13.31;95.16;100762.59;5050232;28;20025;-54
2022/10/22 00:20:05;;;;;;;7.82;4.25;;;;;;;13.24;94.92;100760.50;5047671;28;20035;-54
2022/10/22 00:22:31;;;;;;;7.40;4.90;;;;;;;13.14;94.92;100771.84;5053342;28;20029;-54
2022/10/22 00:24:57;;;;;;;11.38;4.45;;;;;;;13.31;95.82;100756.41;5053795;28;20044;-54
2022/10/22 00:27:22;;;;;;;6.88;4.35;;;;;;;13.21;95.39;100764.25;5054014;28;20037;-54
2022/10/22 00:29:48;;;;;;;9.70;4.68;;;;;;;13.16;95.06;100766.41;5051315;28;20029;-54
2022/10/22 00:32:14;;;;;;;9.63;4.63;;;;;;;13.13;95.30;100759.47;5039611;28;20475;-54
2022/10/22 00:34:39;;;;;;;7.22;4.53;;;;;;;13.07;95.43;100770.63;5053562;28;20428;-54
2022/10/22 00:37:05;;;;;;;7.32;4.60;;;;;;;13.16;98.43;100763.72;5051456;28;20159;-54
2022/10/22 00:39:30;;;;;;;8.38;5.40;;;;;;;13.16;97.87;100774.41;5045686;28;20299;-55
2022/10/22 00:41:56;;;;;;;11.45;5.30;;;;;;;13.18;98.99;100773.34;5052772;28;20048;-54
2022/10/22 00:44:59;;;;;;;10.25;5.63;;;;;;;13.24;99.26;100765.84;5041181;28;20025;-54
2022/10/22 00:47:29;;;;;;;6.80;4.82;;;;;;;13.27;98.70;100770.97;5052672;28;20526;-53
2022/10/22 00:49:56;;;;;;;10.55;5.07;;;;;;;13.25;99.21;100771.06;5033999;28;20036;-54
2022/10/22 00:52:22;;;;;;;8.65;5.00;;;;;;;13.25;98.10;100768.41;5034883;28;20040;-54
2022/10/22 00:54:47;;;;;;;8.93;4.68;;;;;;;13.15;97.51;100770.06;5044399;28;20096;-54
2022/10/22 00:57:15;;;;;;;8.18;5.05;;;;;;;13.22;98.13;100773.94;5040081;28;20025;-54
2022/10/22 00:59:41;;;;;;;7.53;4.68;;;;;;;13.17;97.05;100762.75;5052847;28;20059;-54
2022/10/22 01:02:06;;;;;;;7.40;4.80;;;;;;;13.09;96.71;100765.16;5048691;28;20024;-54
2022/10/22 01:04:32;;;;;;;9.07;4.75;;;;;;;13.11;97.15;100760.53;5038646;28;20491;-54
2022/10/22 01:06:57;;;;;;;11.70;5.10;;;;;;;13.09;98.10;100759.84;5019475;28;20142;-54
2022/10/22 01:09:42;;;;;;;9.30;5.15;;;;;;;13.19;99.54;100775.03;5037672;28;20053;-54
2022/10/22 01:12:37;;;;;;;13.23;5.00;;;;;;;13.15;99.26;100760.22;5034253;28;20053;-54
2022/10/22 01:15:11;;;;;;;11.38;5.63;;;;;;;13.26;99.18;100769.25;5033660;28;20025;-54
2022/10/22 01:18:20;;;;;;;9.85;5.70;;;;;;;13.29;99.50;100771.69;5052216;28;20492;-54
2022/10/22 01:21:05;;;;;;;7.57;5.55;;;;;;;13.28;99.95;100765.50;5050213;28;20033;-53
2022/10/22 01:23:33;;;;;;;8.77;5.75;;;;;;;13.21;99.98;100769.59;5034009;28;20444;-54
2022/10/22 01:26:01;;;;;;;11.98;5.57;;;;;;;13.23;100.00;100764.13;5045192;28;20098;-54
2022/10/22 01:28:47;;;;;;;7.57;5.53;;;;;;;13.21;100.00;100769.59;5051944;28;20058;-54
2022/10/22 01:31:15;;;;;;;13.95;5.93;;;;;;;13.21;100.00;100755.34;5038697;28;20036;-54
2022/10/22 01:33:44;;;;;;;9.70;5.22;;;;;;;13.21;100.00;100766.03;5044135;28;20395;-54
2022/10/22 01:36:11;;;;;;;10.18;5.35;;;;;;;13.22;100.00;100762.41;5051530;28;20109;-54
2022/10/22 01:38:38;;;;;;;11.77;5.95;;;;;;;13.20;100.00;100770.53;5053671;28;20426;-54
2022/10/22 01:41:04;;;;;;;10.70;5.47;;;;;;;13.21;100.00;100758.03;5052105;28;20028;-54
2022/10/22 01:43:29;;;;;;;11.75;6.00;;;;;;;13.21;100.00;100755.34;5051350;28;20094;-55
2022/10/22 01:46:02;;;;;;;9.38;5.30;;;;;;;13.21;100.00;100750.88;5042477;28;20032;-54
2022/10/22 01:48:40;;;;;;;9.40;5.47;;;;;;;13.23;100.00;100756.09;5039843;28;20283;-54
2022/10/22 01:51:43;;;;;;;12.65;5.90;;;;;;;13.24;100.00;100752.47;5047529;28;20040;-55
2022/10/22 01:54:14;;;;;;;17.42;5.97;;;;;;;13.20;100.00;100757.19;5047185;28;20473;-54
2022/10/22 01:57:04;;;;;;;12.75;6.10;;;;;;;13.15;100.00;100751.34;5041706;28;20049;-54
2022/10/22 01:59:38;;;;;;;13.45;5.80;;;;;;;13.15;100.00;100762.88;5032940;28;20360;-55
2022/10/22 02:02:10;;;;;;;8.90;5.70;;;;;;;13.13;100.00;100756.78;5035082;28;20773;-54
2022/10/22 02:04:59;;;;;;;10.52;6.10;;;;;;;13.15;100.00;100765.56;5043049;28;20056;-54
2022/10/22 02:07:31;;;;;;;12.63;6.38;;;;;;;13.14;100.00;100762.97;5049946;28;20060;-54
2022/10/22 02:09:59;;;;;;;14.82;5.57;;;;;;;13.07;100.00;100769.75;5049989;28;20029;-54
2022/10/22 02:12:28;;;;;;;7.50;5.55;;;;;;;13.03;100.00;100760.25;5043713;28;20036;-54
2022/10/22 02:14:55;;;;;;;10.23;5.72;;;;;;;13.08;100.00;100771.47;5043369;28;20029;-54
2022/10/22 02:17:24;;;;;;;12.63;5.40;;;;;;;12.98;100.00;100773.13;5051456;28;20107;-52
2022/10/22 02:19:56;;;;;;;10.50;6.00;;;;;;;13.04;100.00;100773.50;5039758;28;20029;-55
2022/10/22 02:22:23;;;;;;;11.27;6.20;;;;;;;13.03;100.00;100765.59;5032414;28;20033;-54
2022/10/22 02:24:49;;;;;;;13.38;6.53;;;;;;;13.04;100.00;100764.66;5031804;28;20064;-54
2022/10/22 02:27:26;;;;;;;12.88;6.18;;;;;;;13.05;100.00;100767.19;5050540;28;20064;-53
2022/10/22 02:30:09;;;;;;;15.32;6.90;;;;;;;13.09;100.00;100774.03;5049067;28;20468;-53
2022/10/22 02:32:48;;;;;;;15.48;6.32;;;;;;;13.07;100.00;100775.09;5036489;28;20029;-54
2022/10/22 02:35:18;;;;;;;15.05;6.15;;;;;;;12.99;100.00;100769.47;5041883;28;20088;-54
2022/10/22 02:37:44;;;;;;;14.85;6.68;;;;;;;13.02;100.00;100764.75;5043320;28;20033;-51
2022/10/22 02:40:11;;;;;;;9.52;5.90;;;;;;;13.00;100.00;100755.16;5050701;28;20025;-54
2022/10/22 02:42:38;;;;;;;12.13;6.57;;;;;;;13.02;100.00;100771.91;5052384;28;20025;-54
2022/10/22 02:45:04;;;;;;;10.98;6.18;;;;;;;12.93;100.00;100768.13;5076893;28;20021;-54
2022/10/22 02:47:30;;;;;;;19.88;6.93;;;;;;;12.97;100.00;100766.94;5038983;28;20033;-53
2022/10/22 02:49:55;;;;;;;11.77;6.50;;;;;;;12.92;100.00;100767.28;5044524;28;20408;-54
2022/10/22 02:52:23;;;;;;;12.27;6.07;;;;;;;12.88;100.00;100775.59;5030345;28;20046;-54
2022/10/22 02:54:51;;;;;;;10.98;6.95;;;;;;;12.87;100.00;100774.75;5049821;28;20044;-53
2022/10/22 02:57:17;;;;;;;9.80;6.43;;;;;;;12.85;100.00;100771.38;5042611;28;20045;-54
2022/10/22 02:59:43;;;;;;;13.38;6.70;;;;;;;12.86;100.00;100773.06;5050016;28;20110;-54
2022/10/22 03:02:08;;;;;;;13.07;6.28;;;;;;;12.85;100.00;100778.50;5047385;28;20039;-54
2022/10/22 03:04:34;;;;;;;16.60;6.70;;;;;;;12.83;100.00;100778.63;5034453;28;20075;-54
2022/10/22 03:06:59;;;;;;;9.25;6.03;;;;;;;12.84;100.00;100774.97;5051374;28;20116;-54
2022/10/22 03:09:25;;;;;;;9.57;5.72;;;;;;;12.80;100.00;100780.69;5049907;28;20055;-54
2022/10/22 03:11:50;;;;;;;11.38;6.30;;;;;;;12.80;100.00;100783.34;5051335;28;20072;-54
2022/10/22 03:14:16;;;;;;;11.55;6.13;;;;;;;12.81;100.00;100790.38;5051690;28;20032;-54
2022/10/22 03:16:42;;;;;;;14.60;6.15;;;;;;;12.70;100.00;100778.66;5047628;28;20148;-54
2022/10/22 03:19:07;;;;;;;11.80;5.80;;;;;;;12.73;100.00;100782.91;5031479;28;20029;-54
2022/10/22 03:21:36;;;;;;;9.55;5.65;;;;;;;12.73;100.00;100782.91;5056991;28;20048;-54
2022/10/22 03:24:07;;;;;;;12.73;5.88;;;;;;;12.68;100.00;100790.44;5050218;28;20029;-54
2022/10/22 03:26:33;;;;;;;9.77;5.57;;;;;;;12.67;100.00;100788.72;5050042;28;20122;-54
2022/10/22 03:28:59;;;;;;;13.20;6.53;;;;;;;12.67;100.00;100778.03;5051475;28;20032;-54
2022/10/22 03:31:25;;;;;;;12.38;5.88;;;;;;;12.73;100.00;100794.47;5048708;28;20021;-54
2022/10/22 03:33:50;;;;;;;11.70;6.20;;;;;;;12.69;100.00;100787.63;5046178;28;20026;-53
2022/10/22 03:36:16;;;;;;;11.98;6.13;;;;;;;12.76;100.00;100792.53;5039309;28;20395;-54
2022/10/22 03:38:42;;;;;;;10.15;5.57;;;;;;;12.72;100.00;100792.75;5050827;28;20032;-54
2022/10/22 03:41:08;;;;;;;13.95;5.80;;;;;;;12.69;100.00;100786.78;5047248;28;20056;-54
2022/10/22 03:43:37;;;;;;;13.13;5.90;;;;;;;12.71;100.00;100801.72;5049388;28;20476;-54
2022/10/22 03:46:03;;;;;;;11.48;6.10;;;;;;;12.77;100.00;100803.09;5035774;28;20021;-53
2022/10/22 03:48:29;;;;;;;11.07;5.90;;;;;;;12.78;100.00;100803.94;5031574;28;20087;-55
2022/10/22 03:50:54;;;;;;;12.82;6.32;;;;;;;12.76;100.00;100812.06;5043288;28;20112;-54
2022/10/22 03:53:20;;;;;;;18.98;6.15;;;;;;;12.78;100.00;100811.97;5035681;28;20041;-52
2022/10/22 03:55:46;;;;;;;17.17;6.55;;;;;;;12.71;100.00;100806.22;5046920;28;20056;-54
2022/10/22 03:58:11;;;;;;;12.63;6.03;;;;;;;12.72;100.00;100818.59;5048373;28;20074;-54
2022/10/22 04:00:36;;;;;;;11.90;5.78;;;;;;;12.82;100.00;100811.59;5041863;28;20030;-54
2022/10/22 04:03:04;;;;;;;18.85;6.00;;;;;;;12.83;100.00;100813.34;5039617;28;20029;-54
2022/10/22 04:05:33;;;;;;;12.93;5.78;;;;;;;12.86;100.00;100817.59;5049039;28;20041;-54
2022/10/22 04:07:59;;;;;;;16.30;6.93;;;;;;;12.84;100.00;100811.50;5044401;28;20132;-54
2022/10/22 04:10:24;;;;;;;17.88;6.50;;;;;;;12.87;100.00;100817.47;5039314;28;20184;-54
2022/10/22 04:12:50;;;;;;;13.77;5.80;;;;;;;12.83;100.00;100821.34;5050264;28;20033;-54
2022/10/22 04:15:16;;;;;;;13.70;5.60;;;;;;;12.86;100.00;100817.59;5046904;28;20102;-54
2022/10/22 04:17:42;;;;;;;14.45;6.10;;;;;;;12.87;100.00;100816.63;5030080;28;20096;-54
2022/10/22 04:20:09;;;;;;;15.02;6.53;;;;;;;12.89;100.00;100825.38;5036942;28;20113;-54
2022/10/22 04:22:35;;;;;;;14.93;5.55;;;;;;;12.78;100.00;100828.81;5033832;28;20033;-54
2022/10/22 04:25:02;;;;;;;13.00;5.53;;;;;;;12.81;100.00;100831.25;5048161;28;20074;-54
2022/10/22 04:27:37;;;;;;;13.75;5.80;;;;;;;12.84;100.00;100831.03;5033259;28;20435;-54
2022/10/22 04:30:06;;;;;;;11.65;6.03;;;;;;;12.88;100.00;100821.84;5051086;28;20025;-53
2022/10/22 04:32:31;;;;;;;13.80;6.05;;;;;;;12.79;100.00;100825.19;5031777;28;20048;-57
2022/10/22 04:34:58;;;;;;;18.05;6.40;;;;;;;12.91;100.00;100834.97;5048638;28;20029;-54
2022/10/22 04:37:24;;;;;;;14.15;5.93;;;;;;;12.91;100.00;100828.75;5050285;28;20064;-54
2022/10/22 04:39:49;;;;;;;16.25;5.60;;;;;;;12.91;100.00;100826.97;5034534;28;20112;-54
2022/10/22 04:42:15;;;;;;;14.48;5.80;;;;;;;12.92;100.00;100826.00;5032171;28;20056;-55
2022/10/22 04:44:40;;;;;;;12.98;5.50;;;;;;;12.91;100.00;100821.63;5049444;28;20476;-54
2022/10/22 04:47:06;;;;;;;12.93;6.10;;;;;;;12.93;100.00;100827.69;5034648;28;20065;-54
2022/10/22 04:49:31;;;;;;;14.85;6.32;;;;;;;12.90;100.00;100833.25;5034067;28;20030;-54
2022/10/22 04:51:56;;;;;;;13.82;5.63;;;;;;;12.91;100.00;100829.63;5034533;28;20041;-54
2022/10/22 04:54:22;;;;;;;13.50;4.93;;;;;;;12.95;100.00;100841.78;5048842;28;20089;-54
2022/10/22 04:56:47;;;;;;;21.13;6.47;;;;;;;12.98;100.00;100834.53;5053803;28;20786;-54
2022/10/22 04:59:12;;;;;;;14.63;6.13;;;;;;;12.97;100.00;100833.69;5052757;28;20116;-55
2022/10/22 05:01:41;;;;;;;15.10;6.25;;;;;;;12.93;100.00;100832.19;5052893;28;20033;-56
2022/10/22 05:04:11;;;;;;;15.13;6.28;;;;;;;12.98;100.00;100838.03;5052401;28;20033;-54
2022/10/22 05:06:36;;;;;;;;;;;;;;;13.04;100.00;100842.94;5053429;28;20397;-54
2022/10/22 05:09:05;;;;;;;17.35;6.03;;;;;;;12.96;100.00;100837.28;5053037;28;19920;-55
2022/10/22 05:11:36;;;;;;;16.38;6.10;;;;;;;13.02;100.00;100844.00;5050953;28;20036;-54
2022/10/22 05:14:04;;;;;;;15.55;6.82;;;;;;;13.05;100.00;100841.97;5050054;28;20029;-54
2022/10/22 05:16:31;;;;;;;17.15;6.60;;;;;;;13.04;100.00;100840.25;5050926;28;20447;-54
2022/10/22 05:18:58;;;;;;;15.65;6.25;;;;;;;13.08;100.00;100846.22;5051894;28;20084;-54
2022/10/22 05:21:25;;;;;;;15.20;6.47;;;;;;;13.08;100.00;100841.72;5038833;28;20166;-54
2022/10/22 05:23:53;;;;;;;16.63;6.15;;;;;;;13.12;100.00;100845.91;5044884;28;20040;-54
2022/10/22 05:26:21;;;;;;;19.38;6.47;;;;;;;13.19;100.00;100856.97;5032972;28;20049;-55
2022/10/22 05:28:48;;;;;;;17.95;6.35;;;;;;;13.19;100.00;100854.31;5033795;28;20037;-54
2022/10/22 05:31:14;;;;;;;15.02;6.32;;;;;;;13.21;100.00;100859.50;5049790;28;20031;-54
2022/10/22 05:33:40;;;;;;;17.38;6.70;;;;;;;13.19;100.00;100847.13;5051577;28;20045;-54
2022/10/22 05:36:07;;;;;;;18.73;6.30;;;;;;;13.19;100.00;100852.47;5045333;28;20385;-54
2022/10/22 05:38:33;;;;;;;16.30;5.97;;;;;;;13.22;100.00;100856.75;5032526;28;20027;-54
2022/10/22 05:41:05;;;;;;;19.65;6.30;;;;;;;13.21;100.00;100859.50;5032545;28;20033;-55
2022/10/22 05:43:30;;;;;;;16.58;6.13;;;;;;;13.21;100.00;100863.06;5050621;28;20048;-54
2022/10/22 05:46:01;;;;;;;17.15;5.95;;;;;;;13.22;100.00;100867.44;5038673;28;20029;-54
2022/10/22 05:48:27;;;;;;;14.25;5.88;;;;;;;13.18;100.00;100869.47;5047930;28;20029;-54
2022/10/22 05:50:53;;;;;;;15.82;5.60;;;;;;;13.15;100.00;100863.53;5052186;28;20047;-54
2022/10/22 05:53:18;;;;;;;18.05;5.40;;;;;;;13.14;100.00;100872.47;5030651;28;20425;-54
2022/10/22 05:55:44;;;;;;;16.95;5.80;;;;;;;13.14;100.00;100873.31;5048245;28;20041;-54
2022/10/22 05:58:11;;;;;;;13.18;5.30;;;;;;;13.14;100.00;100867.13;5047394;28;20021;-55
2022/10/22 06:00:36;;;;;;;15.85;5.60;;;;;;;13.09;100.00;100874.66;5040917;28;20056;-55
2022/10/22 06:03:01;;;;;;;14.18;5.57;;;;;;;13.08;100.00;100879.13;5052707;28;20090;-54
2022/10/22 06:05:27;;;;;;;16.05;5.45;;;;;;;13.07;100.00;100884.59;5034230;28;20400;-54
2022/10/22 06:07:53;;;;;;;17.13;5.13;;;;;;;13.07;100.00;100890.78;5052011;28;20055;-54
2022/10/22 06:10:20;;;;;;;10.27;5.00;;;;;;;13.03;100.00;100886.63;5049142;28;20116;-54
2022/10/22 06:12:46;;;;;;;14.30;4.85;;;;;;;13.03;100.00;100896.44;5048643;28;20037;-55
2022/10/22 06:15:14;;;;;;;16.05;5.60;;;;;;;12.99;100.00;100884.28;5046567;28;20029;-54
2022/10/22 06:17:40;;;;;;;13.98;4.53;;;;;;;13.04;100.00;100893.66;5048674;28;20060;-54
2022/10/22 06:20:06;;;;;;;14.07;4.05;;;;;;;13.01;100.00;100895.72;5039018;28;20515;-54
2022/10/22 06:22:32;;;;;;;13.32;4.32;;;;;;;13.06;100.00;100902.44;5039447;28;20029;-54
2022/10/22 06:24:57;;;;;;;15.98;5.22;;;;;;;13.09;100.00;100915.56;5032260;28;20398;-54
2022/10/22 06:27:25;;;;;;;11.45;4.38;;;;;;;13.08;100.00;100915.66;5031491;28;20159;-54
2022/10/22 06:29:51;;;;;;;9.38;4.30;;;;;;;13.07;100.00;100921.97;5031113;28;20433;-54
2022/10/22 06:32:16;;;;;;;13.82;4.90;;;;;;;13.08;100.00;100926.34;5049613;28;20170;-54
2022/10/22 06:34:41;;;;;;;11.23;4.90;;;;;;;13.05;100.00;100923.88;5051082;28;20075;-54
2022/10/22 06:37:08;;;;;;;9.52;4.20;;;;;;;13.06;100.00;100930.91;5052568;28;20056;-54
2022/10/22 06:39:34;;;;;;;10.43;4.80;;;;;;;13.07;100.00;100938.84;5050550;28;20021;-54
2022/10/22 06:41:59;;;;;;;11.02;4.57;;;;;;;13.08;100.00;100935.19;5051765;28;20104;-54
2022/10/22 06:44:25;;;;;;;9.98;4.50;;;;;;;12.98;100.00;100925.31;5054133;28;20053;-52
2022/10/22 06:46:51;;;;;;;13.75;4.10;;;;;;;13.06;100.00;100945.16;5045695;28;20029;-54
2022/10/22 06:49:19;;;;;;;15.80;5.00;;;;;;;13.05;100.00;100950.59;5038982;28;20021;-54
2022/10/22 06:51:44;;;;;;;12.10;4.53;;;;;;;13.04;100.00;100952.41;5039209;28;20024;-54
2022/10/22 06:54:11;;;;;;;9.55;4.40;;;;;;;13.02;100.00;100951.66;5050523;28;20443;-54
2022/10/22 06:56:36;;;;;;;20.08;5.32;;;;;;;13.00;100.00;100950.06;5052135;28;20388;-54
2022/10/22 06:59:02;;;;;;;11.43;4.72;;;;;;;13.02;100.00;100965.00;5049628;28;20036;-54
2022/10/22 07:01:32;;;;;;;13.95;4.40;;;;;;;13.02;100.00;100961.50;5051725;28;20033;-53
2022/10/22 07:03:58;;;;;;;10.43;4.07;;;;;;;13.04;100.00;100968.44;5044683;28;20048;-54
2022/10/22 07:06:25;;;;;;;15.63;4.60;;;;;;;13.03;100.00;100972.06;5050847;28;20102;-54
2022/10/22 07:08:52;;;;;;;12.05;4.43;;;;;;;13.03;100.00;100980.09;5051421;28;20068;-54
2022/10/22 07:11:22;;;;;;;12.48;4.43;;;;;;;13.06;100.00;100993.22;5051081;28;20032;-54
2022/10/22 07:13:49;;;;;;;14.70;4.53;;;;;;;13.08;100.00;100991.25;5051910;28;20102;-52
2022/10/22 07:16:16;;;;;;;13.10;4.63;;;;;;;13.06;100.00;100984.31;5051301;28;20438;-54
2022/10/22 07:18:43;;;;;;;11.13;4.38;;;;;;;13.11;100.00;100988.38;5051737;28;20407;-53
2022/10/22 07:21:11;;;;;;;13.88;4.32;;;;;;;13.16;100.00;101004.94;5051299;28;20039;-54
2022/10/22 07:23:37;;;;;;;11.43;4.68;;;;;;;13.21;100.00;100995.72;5051311;28;20032;-54
2022/10/22 07:26:06;;;;;;;13.25;4.22;;;;;;;13.25;100.00;101003.44;5051114;28;20029;-53
2022/10/22 07:28:32;;;;;;;14.33;4.27;;;;;;;13.30;100.00;101001.31;5051666;28;20090;-54
2022/10/22 07:30:58;;;;;;;13.85;4.50;;;;;;;13.29;99.86;100998.72;5051299;28;20369;-52
2022/10/22 07:33:24;;;;;;;11.60;4.18;;;;;;;13.36;99.70;101008.03;5051654;28;20025;-53
2022/10/22 07:35:50;;;;;;;13.25;4.32;;;;;;;13.38;99.76;101014.09;5050700;28;20385;-53
2022/10/22 07:38:15;;;;;;;8.95;4.10;;;;;;;13.42;99.71;101010.25;5051086;28;20036;-52
2022/10/22 07:40:41;;;;;;;14.98;4.45;;;;;;;13.46;99.46;101026.91;5050977;28;20040;-54
2022/10/22 07:43:06;;;;;;;10.73;4.00;;;;;;;13.48;99.36;101020.50;5049950;28;20040;-52
2022/10/22 07:45:32;;;;;;;11.95;4.47;;;;;;;13.55;99.22;101026.25;5050316;28;20048;-53
2022/10/22 07:47:59;;;;;;;10.05;3.88;;;;;;;13.57;98.72;101022.50;5051373;28;20193;-54
2022/10/22 07:50:25;;;;;;;12.65;4.03;;;;;;;13.64;98.66;101020.22;5051166;28;20021;-54
2022/10/22 07:52:51;;;;;;;9.63;3.72;;;;;;;13.70;98.24;101025.13;5051195;28;20115;-53
2022/10/22 07:55:16;;;;;;;12.05;3.97;;;;;;;13.75;97.64;101025.63;5049161;28;20112;-54
2022/10/22 07:57:41;;;;;;;13.65;3.95;;;;;;;13.80;97.60;101031.50;5050450;28;20021;-55
2022/10/22 08:00:11;;;;;;;11.73;4.10;;;;;;;13.84;97.39;101041.00;5051404;28;20025;-54
2022/10/22 08:02:37;;;;;;;9.43;3.70;;;;;;;13.89;97.46;101035.31;5051236;28;20032;-54
2022/10/22 08:05:04;;;;;;;13.32;3.88;;;;;;;13.90;97.24;101041.53;5050766;28;20504;-54
2022/10/22 08:07:29;;;;;;;13.10;4.63;;;;;;;13.91;96.84;101057.44;5050974;28;20064;-53
2022/10/22 08:09:54;;;;;;;12.25;3.38;;;;;;;13.93;96.89;101054.66;5050139;28;20044;-53
2022/10/22 08:12:20;;;;;;;12.98;3.97;;;;;;;13.92;96.37;101052.97;5050262;28;20043;-53
2022/10/22 08:14:45;;;;;;;10.15;3.80;;;;;;;13.99;96.59;101062.22;5049550;28;20037;-53
2022/10/22 08:17:10;;;;;;;11.00;3.50;;;;;;;14.07;96.52;101062.53;5050679;28;20033;-54
2022/10/22 08:19:36;;;;;;;12.13;3.53;;;;;;;14.14;95.96;101057.56;5054702;28;20499;-53
2022/10/22 08:22:02;;;;;;;17.00;4.32;;;;;;;14.21;95.49;101058.81;5053565;28;20041;-54
2022/10/22 08:24:28;;;;;;;11.02;3.47;;;;;;;14.27;95.28;101064.56;5054451;28;20216;-54
2022/10/22 08:26:54;;;;;;;12.07;3.63;;;;;;;14.34;95.56;101072.13;5053693;28;20025;-54
2022/10/22 08:29:22;;;;;;;12.75;3.95;;;;;;;14.37;95.05;101079.91;5054673;28;20021;-54
2022/10/22 08:31:48;;;;;;;11.02;3.22;;;;;;;14.45;94.28;101091.75;5054805;28;20025;-54
2022/10/22 08:34:13;;;;;;;10.07;3.22;;;;;;;14.60;94.01;101083.56;5054174;28;20111;-54
2022/10/22 08:36:39;;;;;;;13.55;3.88;;;;;;;14.66;93.14;101083.09;5053524;28;20257;-54
2022/10/22 08:39:04;;;;;;;12.13;3.40;;;;;;;14.81;92.63;101087.28;5053772;28;20043;-54
2022/10/22 08:41:37;;;;;;;10.05;3.55;;;;;;;14.95;90.98;101096.94;5053933;28;20403;-54
2022/10/22 08:44:28;;;;;;;7.97;3.38;;;;;;;15.08;91.16;101099.50;5054456;28;20021;-54
2022/10/22 08:47:20;;;;;;;7.00;3.00;;;;;;;15.15;91.06;101103.41;5054634;28;20498;-54
2022/10/22 08:49:46;;;;;;;14.77;3.58;;;;;;;15.22;89.46;101107.31;5054057;28;20067;-54
2022/10/22 08:52:17;;;;;;;10.18;3.15;;;;;;;15.19;88.99;101119.13;5036386;28;20025;-53
2022/10/22 08:54:54;;;;;;;9.02;3.03;;;;;;;15.25;89.37;101114.25;5053431;28;20049;-54
2022/10/22 08:57:41;;;;;;;11.43;3.38;;;;;;;15.25;88.65;101117.78;5054147;28;20039;-54
2022/10/22 09:00:19;;;;;;;13.23;3.17;;;;;;;15.30;88.26;101125.47;5053002;28;20033;-54
2022/10/22 09:02:56;;;;;;;10.73;3.08;;;;;;;15.32;88.02;101127.03;5053639;28;20130;-54
2022/10/22 09:05:30;;;;;;;13.65;3.47;;;;;;;15.32;88.44;101132.41;5051850;28;20553;-55
2022/10/22 09:07:56;;;;;;;8.48;3.00;;;;;;;15.35;88.82;101132.19;5052634;28;20496;-54
2022/10/22 09:10:29;;;;;;;8.65;3.28;;;;;;;15.30;87.50;101129.00;5053377;28;20033;-54
2022/10/22 09:12:54;;;;;;;11.35;3.47;;;;;;;15.38;87.78;101137.31;5086302;28;20040;-53
2022/10/22 09:15:20;;;;;;;7.80;3.00;;;;;;;15.33;87.33;101147.53;5053586;28;20480;-54
2022/10/22 09:18:23;;;;;;;15.07;3.47;;;;;;;15.31;88.39;101144.09;5053783;28;20082;-55
2022/10/22 09:20:56;;;;;;;12.35;3.15;;;;;;;15.28;87.60;101148.84;5053974;28;20025;-54
2022/10/22 09:23:45;;;;;;;11.93;3.17;;;;;;;15.31;87.96;101159.34;5052436;28;20020;-54
2022/10/22 09:26:16;;;;;;;7.78;3.00;;;;;;;15.28;88.11;101148.84;5051432;28;20037;-54
2022/10/22 09:28:42;;;;;;;13.82;3.10;;;;;;;15.29;88.42;101167.47;5053101;28;20029;-54
2022/10/22 09:31:12;;;;;;;8.70;3.13;;;;;;;15.27;87.58;101152.50;5053434;28;20484;-54
2022/10/22 09:33:39;;;;;;;10.38;3.03;;;;;;;15.30;87.54;101160.31;5053233;28;20032;-54
2022/10/22 09:36:06;;;;;;;12.82;3.60;;;;;;;15.23;87.64;101162.59;5053105;28;20025;-54
2022/10/22 09:38:44;;;;;;;12.68;3.42;;;;;;;15.30;87.61;101171.88;5053388;28;20550;-54
2022/10/22 09:41:09;;;;;;;9.48;2.92;;;;;;;15.29;87.33;101186.22;5053148;28;20033;-54
2022/10/22 09:43:35;;;;;;;12.07;3.72;;;;;;;15.30;87.76;101176.41;5053385;28;20360;-54
2022/10/22 09:46:06;;;;;;;13.90;3.30;;;;;;;15.34;87.01;101189.41;5053253;28;20025;-54
2022/10/22 09:48:54;;;;;;;10.95;3.53;;;;;;;15.37;88.32;101181.13;5053286;28;20383;-54
2022/10/22 09:52:00;;;;;;;11.35;3.13;;;;;;;15.57;87.46;101187.63;5052784;28;20041;-54
2022/10/22 09:54:32;;;;;;;11.20;3.50;;;;;;;15.48;87.32;101190.19;5051068;28;20083;-54
2022/10/22 09:57:16;;;;;;;9.40;3.50;;;;;;;15.49;86.73;101198.09;5052960;28;20057;-54
2022/10/22 09:59:43;;;;;;;10.52;3.17;;;;;;;15.49;87.35;101202.59;5052798;28;20101;-54
2022/10/22 10:02:17;;;;;;;7.28;2.97;;;;;;;15.49;86.86;101202.59;5051505;28;20032;-54
2022/10/22 10:04:48;;;;;;;15.40;3.45;;;;;;;15.50;86.47;101212.34;5052599;28;20115;-54
2022/10/22 10:07:34;;;;;;;13.55;3.60;;;;;;;15.51;87.49;101227.47;5052665;28;20039;-54
2022/10/22 10:10:00;;;;;;;11.20;3.50;;;;;;;15.54;87.21;101230.75;5051829;28;20025;-54
2022/10/22 10:12:47;;;;;;;8.02;2.95;;;;;;;15.61;87.85;101221.25;5052768;28;20107;-54
2022/10/22 10:15:28;;;;;;;10.80;3.25;;;;;;;15.72;87.08;101227.66;5052130;28;20108;-54
2022/10/22 10:18:02;;;;;;;8.32;3.25;;;;;;;15.66;86.92;101237.84;5052581;28;20387;-54
2022/10/22 10:20:39;;;;;;;10.93;3.20;;;;;;;15.64;86.17;101242.47;5052665;28;20476;-53
2022/10/22 10:23:30;;;;;;;10.65;3.20;;;;;;;15.71;86.84;101240.22;5051473;28;20444;-54
2022/10/22 10:26:08;;;;;;;13.55;2.80;;;;;;;15.88;87.23;101238.88;5051923;28;20040;-54
2022/10/22 10:28:41;;;;;;;9.93;3.42;;;;;;;15.93;86.58;101235.81;5052681;28;20025;-53
2022/10/22 10:31:10;;;;;;;13.23;3.08;;;;;;;15.96;85.53;101243.63;5052499;28;20452;-55
2022/10/22 10:33:44;;;;;;;8.65;3.28;;;;;;;15.98;85.82;101245.22;5051343;28;20107;-54
2022/10/22 10:36:19;;;;;;;12.43;3.55;;;;;;;16.11;84.43;101242.41;5051838;28;20029;-55
2022/10/22 10:39:08;;;;;;;13.85;3.55;;;;;;;16.12;85.71;101238.75;5051189;28;20017;-54
2022/10/22 10:41:50;;;;;;;8.52;3.05;;;;;;;16.24;84.15;101243.13;5050886;28;20025;-54
2022/10/22 10:44:29;;;;;;;11.05;3.42;;;;;;;16.39;83.34;101249.09;5052066;28;20044;-53
2022/10/22 10:47:19;;;;;;;10.00;3.22;;;;;;;16.55;82.51;101246.00;5051806;28;20497;-54
2022/10/22 10:49:45;;;;;;;11.35;3.20;;;;;;;16.71;81.41;101262.56;5052033;28;20025;-54
2022/10/22 10:52:22;;;;;;;14.75;3.65;;;;;;;16.88;80.75;101249.59;5050965;28;20032;-54
2022/10/22 10:55:05;;;;;;;12.63;3.45;;;;;;;16.92;80.72;101248.38;5051551;28;20461;-55
2022/10/22 10:57:39;;;;;;;12.55;3.58;;;;;;;16.95;79.85;101240.91;5051774;28;20028;-54
2022/10/22 11:00:15;;;;;;;11.82;3.42;;;;;;;17.36;78.93;101241.09;5051894;28;20139;-55
2022/10/22 11:02:47;;;;;;;14.32;3.40;;;;;;;17.55;75.57;101249.25;5051712;28;20097;-55
2022/10/22 11:05:31;;;;;;;11.10;2.92;;;;;;;17.67;76.41;101250.03;5051700;28;20052;-55
2022/10/22 11:08:17;;;;;;;10.75;2.95;;;;;;;17.61;77.80;101248.72;5051233;28;20057;-54
2022/10/22 11:10:49;;;;;;;11.82;3.20;;;;;;;17.89;74.57;101254.44;5033544;28;20049;-55
2022/10/22 11:13:33;;;;;;;10.98;3.40;;;;;;;17.98;74.02;101250.09;5051088;28;20090;-55
2022/10/22 11:16:08;;;;;;;8.77;2.85;;;;;;;18.31;72.25;101252.47;5051683;28;20178;-53
2022/10/22 11:18:51;;;;;;;7.90;2.40;;;;;;;18.73;71.02;101249.63;5051499;28;20075;-55
2022/10/22 11:21:33;;;;;;;8.45;2.80;;;;;;;19.00;70.85;101258.84;5051522;28;20028;-55
2022/10/22 11:24:01;;;;;;;10.02;2.67;;;;;;;18.99;67.78;101258.00;5051675;28;20029;-55
2022/10/22 11:26:39;;;;;;;10.25;2.90;;;;;;;18.80;69.48;101256.16;5051215;28;20379;-54